Time;durP1;ratioP1;P1;durP2;ratioP2;P2;SDS_P1;SDS_P2;PMS_P1;PMS_P2;Temp;Humidity;BMP_temperature;BMP_pressure;BME280_temperature;BME280_humidity;BME280_pressure;Samples;Min_cycle;Max_cycle;Signal;HPM_P1;HPM_P2
2023/10/25 00:01:08;;;;;;;3.10;1.73;;;10.80;99.90;;;;;;5085622;28;20816;-79
2023/10/25 00:03:35;;;;;;;3.80;1.80;;;10.80;99.90;;;;;;5095773;28;20986;-78
2023/10/25 00:06:02;;;;;;;3.40;1.90;;;10.80;99.90;;;;;;5095557;28;20468;-79
2023/10/25 00:08:29;;;;;;;5.40;1.90;;;10.80;99.90;;;;;;5088133;28;20483;-79
2023/10/25 00:11:03;;;;;;;3.50;1.90;;;10.80;99.90;;;;;;5093322;28;20535;-79
2023/10/25 00:13:29;;;;;;;3.93;1.40;;;10.80;99.90;;;;;;5088016;28;20470;-77
2023/10/25 00:15:56;;;;;;;3.43;2.27;;;10.80;99.90;;;;;;5088495;28;20960;-78
2023/10/25 00:18:25;;;;;;;3.57;2.00;;;10.80;99.90;;;;;;5097024;28;20449;-78
2023/10/25 00:20:52;;;;;;;3.80;2.20;;;10.70;99.90;;;;;;5096201;28;20860;-77
2023/10/25 00:23:19;;;;;;;7.43;2.03;;;10.70;99.90;;;;;;5092140;28;21094;-78
2023/10/25 00:25:46;;;;;;;5.93;2.10;;;10.60;99.90;;;;;;5095173;28;20461;-78
2023/10/25 00:28:13;;;;;;;3.10;1.60;;;10.60;99.90;;;;;;5095792;28;20572;-77
2023/10/25 00:30:40;;;;;;;2.30;1.60;;;10.70;99.90;;;;;;5092475;28;20451;-78
2023/10/25 00:33:07;;;;;;;3.90;1.90;;;10.70;99.90;;;;;;5095003;28;20474;-79
2023/10/25 00:35:35;;;;;;;4.20;2.37;;;10.70;99.90;;;;;;5093498;28;20545;-77
2023/10/25 00:38:02;;;;;;;3.03;1.93;;;10.60;99.90;;;;;;5096049;28;20442;-79
2023/10/25 00:40:29;;;;;;;2.43;1.73;;;10.60;99.90;;;;;;5084216;28;20867;-79
2023/10/25 00:43:13;;;;;;;3.47;1.60;;;10.60;99.90;;;;;;5096903;28;20481;-79
2023/10/25 00:45:44;;;;;;;2.50;1.67;;;10.60;99.90;;;;;;5096482;28;20457;-78
2023/10/25 00:48:11;;;;;;;4.03;1.57;;;10.50;99.90;;;;;;5095630;28;21030;-78
2023/10/25 00:50:39;;;;;;;4.53;1.97;;;10.50;99.90;;;;;;5088255;28;20501;-77
2023/10/25 00:53:06;;;;;;;2.83;1.50;;;10.50;99.90;;;;;;5095882;28;20471;-78
2023/10/25 00:55:33;;;;;;;2.43;1.47;;;10.50;99.90;;;;;;5094213;28;20457;-79
2023/10/25 00:58:00;;;;;;;4.30;1.70;;;10.50;99.90;;;;;;5090717;28;21024;-79
2023/10/25 01:00:27;;;;;;;3.40;1.77;;;10.50;99.90;;;;;;5033987;28;20955;-78
2023/10/25 01:02:54;;;;;;;3.90;2.00;;;10.50;99.90;;;;;;5087979;28;20484;-78
2023/10/25 01:05:21;;;;;;;3.60;1.40;;;10.40;99.90;;;;;;5096208;28;20457;-78
2023/10/25 01:07:49;;;;;;;2.50;1.40;;;10.40;99.90;;;;;;5095158;28;20920;-78
2023/10/25 01:10:17;;;;;;;3.10;1.50;;;10.40;99.90;;;;;;5088602;28;20470;-78
2023/10/25 01:12:44;;;;;;;3.37;1.60;;;10.40;99.90;;;;;;5088881;28;20482;-78
2023/10/25 01:15:13;;;;;;;2.60;1.67;;;10.40;99.90;;;;;;5096425;28;20463;-78
2023/10/25 01:17:40;;;;;;;2.63;1.40;;;10.40;99.90;;;;;;5095785;28;20459;-77
2023/10/25 01:20:08;;;;;;;4.47;1.50;;;10.40;99.90;;;;;;5088670;28;20474;-78
2023/10/25 01:22:36;;;;;;;4.20;1.67;;;10.40;99.90;;;;;;5095974;28;20501;-78
2023/10/25 01:25:03;;;;;;;7.73;1.80;;;10.40;99.90;;;;;;5094576;28;20450;-79
2023/10/25 01:27:29;;;;;;;4.43;1.40;;;10.30;99.90;;;;;;5073964;28;20454;-78
2023/10/25 01:29:55;;;;;;;2.50;1.27;;;10.30;99.90;;;;;;5086043;28;20845;-78
2023/10/25 01:32:22;;;;;;;3.73;1.73;;;10.30;99.90;;;;;;5094487;28;20473;-78
2023/10/25 01:34:49;;;;;;;3.87;1.50;;;10.30;99.90;;;;;;5094361;28;20246;-78
2023/10/25 01:37:16;;;;;;;4.37;1.50;;;10.20;99.90;;;;;;5086662;28;20457;-79
2023/10/25 01:39:44;;;;;;;5.47;1.70;;;10.20;99.90;;;;;;5094285;28;20435;-79
2023/10/25 01:42:11;;;;;;;4.27;1.67;;;10.20;99.90;;;;;;5080504;28;20460;-77
2023/10/25 01:44:37;;;;;;;2.03;1.30;;;10.20;99.90;;;;;;5082526;28;20489;-78
2023/10/25 01:47:05;;;;;;;3.20;2.27;;;10.20;99.90;;;;;;5082530;28;20457;-77
2023/10/25 01:49:31;;;;;;;6.83;1.50;;;10.20;99.90;;;;;;5088875;28;20573;-77
2023/10/25 01:51:58;;;;;;;4.67;1.77;;;10.20;99.90;;;;;;5094008;28;20449;-78
2023/10/25 01:54:26;;;;;;;2.13;1.50;;;10.20;99.90;;;;;;5094790;28;20548;-79
2023/10/25 01:56:54;;;;;;;3.67;1.67;;;10.20;99.90;;;;;;5089478;28;20543;-79
2023/10/25 01:59:20;;;;;;;4.27;2.23;;;10.20;99.90;;;;;;5088653;28;20464;-79
2023/10/25 02:01:47;;;;;;;4.67;1.43;;;10.20;99.90;;;;;;5095238;28;20454;-79
2023/10/25 02:04:14;;;;;;;4.00;2.30;;;10.20;99.90;;;;;;5080615;28;20892;-79
2023/10/25 02:06:41;;;;;;;5.63;2.43;;;10.20;99.90;;;;;;5089560;28;21005;-79
2023/10/25 02:09:08;;;;;;;2.73;1.67;;;10.20;99.90;;;;;;5094500;28;20523;-79
2023/10/25 02:11:35;;;;;;;7.20;1.50;;;10.20;99.90;;;;;;5094295;28;20453;-79
2023/10/25 02:14:03;;;;;;;4.43;1.70;;;10.20;99.90;;;;;;5090605;28;20477;-78
2023/10/25 02:16:30;;;;;;;3.23;2.03;;;10.20;99.90;;;;;;5090712;28;20473;-79
2023/10/25 02:18:57;;;;;;;2.40;1.77;;;10.20;99.90;;;;;;5089787;28;20457;-79
2023/10/25 02:21:24;;;;;;;2.07;1.70;;;10.20;99.90;;;;;;5093620;28;20460;-78
2023/10/25 02:23:50;;;;;;;2.53;1.70;;;10.20;99.90;;;;;;5093459;28;20473;-78
2023/10/25 02:26:17;;;;;;;3.37;1.93;;;10.20;99.90;;;;;;5092784;28;20840;-78
2023/10/25 02:28:44;;;;;;;2.13;1.30;;;10.20;99.90;;;;;;5088092;28;20485;-78
2023/10/25 02:31:13;;;;;;;3.60;1.30;;;10.20;99.90;;;;;;5092481;28;20811;-77
2023/10/25 02:33:39;;;;;;;4.30;1.60;;;10.20;99.90;;;;;;5082738;28;20883;-79
2023/10/25 02:36:07;;;;;;;4.50;1.90;;;10.20;99.90;;;;;;5087804;28;20464;-77
2023/10/25 02:38:33;;;;;;;5.33;1.83;;;10.20;99.90;;;;;;5090182;28;20961;-77
2023/10/25 02:41:00;;;;;;;4.50;1.50;;;10.10;99.90;;;;;;5093518;28;20562;-77
2023/10/25 02:43:27;;;;;;;4.57;2.17;;;10.10;99.90;;;;;;5093415;28;20477;-78
2023/10/25 02:45:54;;;;;;;3.00;1.90;;;10.10;99.90;;;;;;5093134;28;20963;-78
2023/10/25 02:48:22;;;;;;;4.40;1.90;;;10.10;99.90;;;;;;5089983;28;20457;-78
2023/10/25 02:50:49;;;;;;;3.93;2.07;;;10.10;99.90;;;;;;5079233;28;20447;-77
2023/10/25 02:53:16;;;;;;;2.93;1.70;;;10.00;99.90;;;;;;5093770;28;20981;-78
2023/10/25 02:55:44;;;;;;;3.10;1.53;;;10.00;99.90;;;;;;5092751;28;20453;-78
2023/10/25 02:58:11;;;;;;;4.37;1.90;;;10.00;99.90;;;;;;5090106;28;21008;-77
2023/10/25 03:00:38;;;;;;;2.83;1.40;;;10.00;99.90;;;;;;5085618;28;20442;-78
2023/10/25 03:03:05;;;;;;;3.10;2.10;;;10.00;99.90;;;;;;5092966;28;20473;-77
2023/10/25 03:05:33;;;;;;;3.70;1.53;;;10.00;99.90;;;;;;5093055;28;20460;-78
2023/10/25 03:08:00;;;;;;;2.50;1.60;;;10.00;99.90;;;;;;5090265;28;20484;-77
2023/10/25 03:10:27;;;;;;;4.17;2.00;;;9.90;99.90;;;;;;5092202;28;20493;-79
2023/10/25 03:12:54;;;;;;;3.47;2.10;;;9.90;99.90;;;;;;5092371;28;20481;-79
2023/10/25 03:15:20;;;;;;;2.90;2.07;;;9.90;99.90;;;;;;5092753;28;20468;-79
2023/10/25 03:17:47;;;;;;;2.33;1.37;;;9.90;99.90;;;;;;5090110;28;20449;-79
2023/10/25 03:20:14;;;;;;;2.30;1.57;;;9.90;99.90;;;;;;5092468;28;20524;-79
2023/10/25 03:22:42;;;;;;;4.00;1.87;;;9.80;99.90;;;;;;5092491;28;20469;-78
2023/10/25 03:25:09;;;;;;;2.87;1.60;;;9.80;99.90;;;;;;5089846;28;20946;-78
2023/10/25 03:27:36;;;;;;;2.97;1.80;;;9.80;99.90;;;;;;5091227;28;20464;-79
2023/10/25 03:30:03;;;;;;;2.63;1.50;;;9.80;99.90;;;;;;5092210;28;20849;-78
2023/10/25 03:32:30;;;;;;;4.20;2.10;;;9.80;99.90;;;;;;5093068;28;20472;-78
2023/10/25 03:34:57;;;;;;;2.70;1.80;;;9.80;99.90;;;;;;5072586;28;20458;-78
2023/10/25 03:37:24;;;;;;;2.30;1.30;;;9.80;99.90;;;;;;5069814;28;20462;-77
2023/10/25 03:39:52;;;;;;;2.23;1.53;;;9.80;99.90;;;;;;5074096;28;20521;-78
2023/10/25 03:42:19;;;;;;;2.17;1.70;;;9.80;99.90;;;;;;5066951;28;20439;-79
2023/10/25 03:44:46;;;;;;;2.57;1.60;;;9.80;99.90;;;;;;5080962;28;20450;-78
2023/10/25 03:47:13;;;;;;;3.23;1.70;;;9.70;99.90;;;;;;5078216;28;20507;-79
2023/10/25 03:49:39;;;;;;;3.10;1.70;;;9.70;99.90;;;;;;5095873;28;20548;-78
2023/10/25 03:52:06;;;;;;;4.50;1.80;;;9.70;99.90;;;;;;5096859;28;20460;-78
2023/10/25 03:54:37;;;;;;;4.00;1.77;;;9.70;99.90;;;;;;5091599;28;20812;-78
2023/10/25 03:57:06;;;;;;;3.13;1.70;;;9.80;99.90;;;;;;5096571;28;20448;-79
2023/10/25 03:59:33;;;;;;;3.80;2.50;;;9.70;99.90;;;;;;5095994;28;20448;-80
2023/10/25 04:02:00;;;;;;;6.23;1.80;;;9.70;99.90;;;;;;5094319;28;20448;-79
2023/10/25 04:04:27;;;;;;;2.50;2.00;;;9.70;99.90;;;;;;5097490;28;20465;-79
2023/10/25 04:06:53;;;;;;;2.37;1.67;;;9.70;99.90;;;;;;5094067;28;20459;-80
2023/10/25 04:09:20;;;;;;;3.20;1.80;;;9.70;99.90;;;;;;5095003;28;20503;-79
2023/10/25 04:11:47;;;;;;;3.13;1.90;;;9.70;99.90;;;;;;5095310;28;20940;-79
2023/10/25 04:14:16;;;;;;;3.00;1.70;;;9.70;99.90;;;;;;5097436;28;20493;-80
2023/10/25 04:16:42;;;;;;;3.93;1.77;;;9.70;99.90;;;;;;5097215;28;20463;-79
2023/10/25 04:19:09;;;;;;;2.63;1.60;;;9.70;99.90;;;;;;5096639;28;20448;-79
2023/10/25 04:21:36;;;;;;;3.33;1.80;;;9.70;99.90;;;;;;5079564;28;20563;-80
2023/10/25 04:24:03;;;;;;;3.20;1.77;;;9.70;99.90;;;;;;5085113;28;20543;-78
2023/10/25 04:26:30;;;;;;;4.03;1.87;;;9.70;99.90;;;;;;5086432;28;20450;-79
2023/10/25 04:28:56;;;;;;;2.90;1.83;;;9.60;99.90;;;;;;5085850;28;20484;-78
2023/10/25 04:31:25;;;;;;;4.40;1.67;;;9.60;99.90;;;;;;5093400;28;20472;-78
2023/10/25 04:33:52;;;;;;;4.47;1.77;;;9.60;99.90;;;;;;5095325;28;20564;-78
2023/10/25 04:36:19;;;;;;;3.93;2.03;;;9.70;99.90;;;;;;5095598;28;20446;-78
2023/10/25 04:38:46;;;;;;;3.87;2.20;;;9.60;99.90;;;;;;5086896;28;20464;-78
2023/10/25 04:41:13;;;;;;;3.50;2.17;;;9.70;99.90;;;;;;5095165;28;20452;-78
2023/10/25 04:43:41;;;;;;;7.03;2.30;;;9.70;99.90;;;;;;5086428;28;20489;-81
2023/10/25 04:46:14;;;;;;;3.10;2.10;;;9.60;99.90;;;;;;5092065;28;20480;-79
2023/10/25 04:48:43;;;;;;;4.20;1.90;;;9.60;99.90;;;;;;5092000;28;20956;-79
2023/10/25 04:51:13;;;;;;;4.47;2.07;;;9.60;99.90;;;;;;5095014;28;20492;-80
2023/10/25 04:53:39;;;;;;;4.40;2.50;;;9.60;99.90;;;;;;5095185;28;20861;-78
2023/10/25 04:56:07;;;;;;;3.20;1.70;;;9.70;99.90;;;;;;5082572;28;20459;-79
2023/10/25 04:58:34;;;;;;;3.23;1.70;;;9.70;99.90;;;;;;5091561;28;20825;-78
2023/10/25 05:01:01;;;;;;;3.37;2.03;;;9.70;99.90;;;;;;5087901;28;20458;-79
2023/10/25 05:03:28;;;;;;;3.17;1.90;;;9.70;99.90;;;;;;5092668;28;20466;-78
2023/10/25 05:05:56;;;;;;;4.27;2.10;;;9.80;99.90;;;;;;5093415;28;20453;-79
2023/10/25 05:08:23;;;;;;;5.63;2.30;;;9.80;99.90;;;;;;5080517;28;20461;-78
2023/10/25 05:10:54;;;;;;;3.07;2.30;;;9.80;99.90;;;;;;5094739;28;20538;-79
2023/10/25 05:13:22;;;;;;;3.77;2.10;;;9.90;99.90;;;;;;5091867;28;20495;-78
2023/10/25 05:15:49;;;;;;;5.67;2.43;;;9.90;99.90;;;;;;5095340;28;20462;-78
2023/10/25 05:18:16;;;;;;;5.73;2.43;;;10.00;99.90;;;;;;5085998;28;20466;-78
2023/10/25 05:20:44;;;;;;;3.20;2.60;;;10.00;99.90;;;;;;5086235;28;20816;-79
2023/10/25 05:23:12;;;;;;;3.67;2.37;;;10.10;99.90;;;;;;5093126;28;20479;-79
2023/10/25 05:25:43;;;;;;;3.20;2.50;;;10.10;99.90;;;;;;5094207;28;20453;-79
2023/10/25 05:28:11;;;;;;;6.27;2.63;;;10.00;99.90;;;;;;5089418;28;20540;-83
2023/10/25 05:30:38;;;;;;;4.63;2.50;;;10.20;99.90;;;;;;5097556;28;20481;-79
2023/10/25 05:33:07;;;;;;;2.43;1.80;;;10.20;99.90;;;;;;5089846;28;20847;-79
2023/10/25 05:35:34;;;;;;;3.60;2.30;;;10.20;99.90;;;;;;5089157;28;20464;-80
2023/10/25 05:38:03;;;;;;;4.27;2.47;;;10.20;99.90;;;;;;5075713;28;20493;-79
2023/10/25 05:40:32;;;;;;;5.23;2.60;;;10.30;99.90;;;;;;5087491;28;20523;-78
2023/10/25 05:43:03;;;;;;;3.13;2.30;;;10.30;99.90;;;;;;5082279;28;20511;-79
2023/10/25 05:45:29;;;;;;;5.60;3.57;;;10.40;99.90;;;;;;5090012;28;20534;-78
2023/10/25 05:47:57;;;;;;;4.27;2.70;;;10.40;99.90;;;;;;5083529;28;20459;-78
2023/10/25 05:50:24;;;;;;;3.13;2.77;;;10.40;99.90;;;;;;5085176;28;20515;-79
2023/10/25 05:52:51;;;;;;;5.20;3.03;;;10.40;99.90;;;;;;5094276;28;20473;-78
2023/10/25 05:55:18;;;;;;;3.13;2.53;;;10.40;99.90;;;;;;5094158;28;20533;-79
2023/10/25 05:57:47;;;;;;;3.70;2.63;;;10.40;99.90;;;;;;5088237;28;20475;-79
2023/10/25 06:00:15;;;;;;;3.77;2.57;;;10.40;99.90;;;;;;5093960;28;20481;-79
2023/10/25 06:02:44;;;;;;;3.17;2.47;;;10.40;99.90;;;;;;5087995;28;20486;-78
2023/10/25 06:05:13;;;;;;;3.10;2.53;;;10.40;99.90;;;;;;5072492;28;20493;-77
2023/10/25 06:07:41;;;;;;;6.47;3.20;;;10.50;99.90;;;;;;5070873;28;20469;-77
2023/10/25 06:10:09;;;;;;;3.80;3.30;;;10.50;99.90;;;;;;5066496;28;20477;-79
2023/10/25 06:12:36;;;;;;;5.13;2.73;;;10.50;99.90;;;;;;5075110;28;20531;-78
2023/10/25 06:15:06;;;;;;;5.13;2.73;;;10.50;99.90;;;;;;5076831;28;20818;-79
2023/10/25 06:17:33;;;;;;;4.27;2.63;;;10.50;99.90;;;;;;5073974;28;20447;-79
2023/10/25 06:20:00;;;;;;;4.77;3.20;;;10.60;99.90;;;;;;5068660;28;20822;-78
2023/10/25 06:22:27;;;;;;;4.87;3.17;;;10.60;99.90;;;;;;5074375;28;20468;-79
2023/10/25 06:24:54;;;;;;;4.73;3.50;;;10.60;99.90;;;;;;5072651;28;20470;-78
2023/10/25 06:27:21;;;;;;;4.57;2.83;;;10.60;99.90;;;;;;5070562;28;20466;-78
2023/10/25 06:29:48;;;;;;;3.57;2.60;;;10.60;99.90;;;;;;5071526;28;20481;-78
2023/10/25 06:32:16;;;;;;;4.10;2.90;;;10.60;99.90;;;;;;5079745;28;20439;-78
2023/10/25 06:34:43;;;;;;;7.47;3.27;;;10.60;99.90;;;;;;5081857;28;21006;-78
2023/10/25 06:37:10;;;;;;;5.50;2.97;;;10.60;99.90;;;;;;5072565;28;20457;-78
2023/10/25 06:39:38;;;;;;;8.00;3.80;;;10.60;99.90;;;;;;5072823;28;20806;-78
2023/10/25 06:42:05;;;;;;;10.60;3.17;;;10.70;99.90;;;;;;5072400;28;20513;-77
2023/10/25 06:44:33;;;;;;;4.33;2.67;;;10.70;99.90;;;;;;5073690;28;20455;-77
2023/10/25 06:47:01;;;;;;;4.33;2.80;;;10.70;99.90;;;;;;5068896;28;20471;-77
2023/10/25 06:49:29;;;;;;;5.93;3.07;;;10.80;99.90;;;;;;5071672;28;20473;-78
2023/10/25 06:51:57;;;;;;;5.30;3.03;;;10.70;99.90;;;;;;5076814;28;20512;-78
2023/10/25 06:54:24;;;;;;;4.93;3.10;;;10.70;99.90;;;;;;5085489;28;20953;-78
2023/10/25 06:56:51;;;;;;;9.57;3.70;;;10.70;99.90;;;;;;5062504;28;20482;-77
2023/10/25 06:59:18;;;;;;;4.63;3.20;;;10.80;99.90;;;;;;5086700;28;20451;-79
2023/10/25 07:01:48;;;;;;;4.43;3.20;;;10.60;99.90;;;;;;5076689;28;20533;-78
2023/10/25 07:04:15;;;;;;;7.00;2.83;;;10.70;99.90;;;;;;5070366;28;20509;-78
2023/10/25 07:06:46;;;;;;;7.23;2.90;;;10.80;99.90;;;;;;5065532;28;20922;-79
2023/10/25 07:09:14;;;;;;;7.80;4.43;;;10.80;99.90;;;;;;5073076;28;20461;-79
2023/10/25 07:11:41;;;;;;;6.33;3.47;;;10.80;99.90;;;;;;5086349;28;20491;-79
2023/10/25 07:14:08;;;;;;;4.73;2.83;;;10.80;99.90;;;;;;5085020;28;20482;-79
2023/10/25 07:16:37;;;;;;;5.90;2.50;;;10.90;99.90;;;;;;5071603;28;20447;-79
2023/10/25 07:19:04;;;;;;;4.73;3.17;;;11.00;99.90;;;;;;5068633;28;20805;-77
2023/10/25 07:21:31;;;;;;;4.00;2.97;;;11.00;99.90;;;;;;5069320;28;20445;-79
2023/10/25 07:23:59;;;;;;;4.40;3.40;;;11.10;99.90;;;;;;5070662;28;20461;-78
2023/10/25 07:26:26;;;;;;;4.40;3.63;;;11.20;99.90;;;;;;5073680;28;20535;-78
2023/10/25 07:28:53;;;;;;;5.27;2.90;;;11.30;99.90;;;;;;5085455;28;20454;-78
2023/10/25 07:31:20;;;;;;;7.70;2.77;;;11.50;99.90;;;;;;5089256;28;21053;-79
2023/10/25 07:33:46;;;;;;;3.90;2.10;;;11.60;99.90;;;;;;5078666;28;20850;-77
2023/10/25 07:36:13;;;;;;;5.23;2.53;;;11.60;99.90;;;;;;5074277;28;21029;-78
2023/10/25 07:38:41;;;;;;;5.77;1.87;;;11.60;99.90;;;;;;5075331;28;20533;-78
2023/10/25 07:41:09;;;;;;;4.47;2.00;;;11.70;99.90;;;;;;5089043;28;20443;-79
2023/10/25 07:43:36;;;;;;;4.87;1.97;;;11.80;99.90;;;;;;5095008;28;20464;-78
2023/10/25 07:46:03;;;;;;;3.63;1.80;;;11.70;99.90;;;;;;5081829;28;20482;-78
2023/10/25 07:48:30;;;;;;;2.63;1.73;;;11.80;99.90;;;;;;5086009;28;20554;-78
2023/10/25 07:51:03;;;;;;;3.00;1.80;;;11.80;99.90;;;;;;5086335;28;20478;-77
2023/10/25 07:53:30;;;;;;;3.20;1.97;;;11.90;99.90;;;;;;5096149;28;20902;-77
2023/10/25 07:55:57;;;;;;;4.90;1.93;;;11.90;99.90;;;;;;5077624;28;20458;-78
2023/10/25 07:58:26;;;;;;;7.77;1.97;;;11.90;99.90;;;;;;5089518;28;20942;-77
2023/10/25 08:00:53;;;;;;;8.50;2.23;;;12.00;99.90;;;;;;5084104;28;20469;-79
2023/10/25 08:03:20;;;;;;;2.90;1.70;;;11.90;99.90;;;;;;5077462;28;20478;-79
2023/10/25 08:05:46;;;;;;;2.97;1.87;;;12.00;99.90;;;;;;5087481;28;20448;-78
2023/10/25 08:08:13;;;;;;;3.63;1.50;;;12.00;99.90;;;;;;5089251;28;20462;-78
2023/10/25 08:10:40;;;;;;;2.67;1.47;;;11.90;99.90;;;;;;5095633;28;20487;-78
2023/10/25 08:13:07;;;;;;;4.10;2.00;;;12.00;99.90;;;;;;5095949;28;20979;-79
2023/10/25 08:15:36;;;;;;;3.13;1.40;;;12.00;99.90;;;;;;5088150;28;20455;-79
2023/10/25 08:18:03;;;;;;;3.40;1.60;;;12.00;99.90;;;;;;5089007;28;20918;-78
2023/10/25 08:20:35;;;;;;;3.20;1.33;;;12.10;99.90;;;;;;5087500;28;20449;-78
2023/10/25 08:23:02;;;;;;;4.17;1.53;;;12.10;99.90;;;;;;5072501;28;20501;-78
2023/10/25 08:25:29;;;;;;;2.27;1.23;;;12.00;99.90;;;;;;5089851;28;20457;-79
2023/10/25 08:27:55;;;;;;;6.33;1.73;;;12.10;99.90;;;;;;5093684;28;20813;-78
2023/10/25 08:30:22;;;;;;;2.67;1.03;;;12.10;99.90;;;;;;5086779;28;20850;-78
2023/10/25 08:32:50;;;;;;;4.20;1.10;;;12.20;99.90;;;;;;5080003;28;20526;-78
2023/10/25 08:35:18;;;;;;;3.43;1.50;;;12.20;99.90;;;;;;5085813;28;20456;-79
2023/10/25 08:37:45;;;;;;;3.70;1.40;;;12.20;99.90;;;;;;5088034;28;20461;-79
2023/10/25 08:40:14;;;;;;;2.87;1.30;;;12.20;99.90;;;;;;5082269;28;20937;-77
2023/10/25 08:42:41;;;;;;;4.07;1.97;;;12.20;99.90;;;;;;5084474;28;20472;-78
2023/10/25 08:45:09;;;;;;;3.40;1.63;;;12.30;99.90;;;;;;5079088;28;20451;-79
2023/10/25 08:47:36;;;;;;;5.63;1.40;;;12.30;99.90;;;;;;5080988;28;20451;-77
2023/10/25 08:50:05;;;;;;;2.47;1.40;;;12.40;99.90;;;;;;5083681;28;20458;-78
2023/10/25 08:52:32;;;;;;;4.60;1.93;;;12.50;99.90;;;;;;5088178;28;20498;-78
2023/10/25 08:55:01;;;;;;;1.90;1.10;;;12.60;99.90;;;;;;5090170;28;20457;-78
2023/10/25 08:57:28;;;;;;;1.87;1.23;;;12.60;99.90;;;;;;5094916;28;20448;-78
2023/10/25 08:59:55;;;;;;;4.30;1.40;;;12.70;99.90;;;;;;5087501;28;20943;-78
2023/10/25 09:02:22;;;;;;;2.20;1.30;;;12.60;99.90;;;;;;5091038;28;20456;-77
2023/10/25 09:04:58;;;;;;;5.10;2.30;;;12.60;99.90;;;;;;5084038;28;20528;-78
2023/10/25 09:07:30;;;;;;;2.00;0.90;;;12.60;99.90;;;;;;5095935;28;20464;-78
2023/10/25 09:09:57;;;;;;;2.47;1.30;;;12.70;99.90;;;;;;5080804;28;20454;-78
2023/10/25 09:12:24;;;;;;;4.77;1.20;;;12.70;99.90;;;;;;5095119;28;20488;-78
2023/10/25 09:14:52;;;;;;;6.00;1.40;;;12.70;99.90;;;;;;5087702;28;20455;-77
2023/10/25 09:17:19;;;;;;;7.93;1.43;;;12.70;99.90;;;;;;5090524;28;20451;-79
2023/10/25 09:19:46;;;;;;;3.67;1.20;;;12.80;99.90;;;;;;5090405;28;20458;-78
2023/10/25 09:22:21;;;;;;;3.57;1.57;;;12.70;99.90;;;;;;5094750;28;20519;-77
2023/10/25 09:24:50;;;;;;;1.60;1.07;;;12.80;99.90;;;;;;5085680;28;20444;-78
2023/10/25 09:27:18;;;;;;;3.80;1.30;;;12.80;99.90;;;;;;5095695;28;20553;-79
2023/10/25 09:29:45;;;;;;;3.53;1.47;;;12.90;99.90;;;;;;5095261;28;20452;-79
2023/10/25 09:32:12;;;;;;;2.57;1.10;;;12.90;99.90;;;;;;5084777;28;20829;-79
2023/10/25 09:34:39;;;;;;;3.63;1.73;;;12.90;99.90;;;;;;5083407;28;20533;-78
2023/10/25 09:37:07;;;;;;;3.83;1.50;;;12.90;99.90;;;;;;5095814;28;20539;-77
2023/10/25 09:39:36;;;;;;;2.60;1.40;;;13.00;99.90;;;;;;5093914;28;20824;-79
2023/10/25 09:42:07;;;;;;;2.17;1.40;;;13.00;99.90;;;;;;5088512;28;20450;-78
2023/10/25 09:44:38;;;;;;;3.20;1.50;;;13.00;99.90;;;;;;5083285;28;20462;-78
2023/10/25 09:47:09;;;;;;;6.70;1.20;;;13.00;99.90;;;;;;5075339;28;20446;-79
2023/10/25 09:49:40;;;;;;;3.93;1.00;;;13.00;99.90;;;;;;5082009;28;20444;-78
2023/10/25 09:52:12;;;;;;;4.37;1.43;;;13.00;99.90;;;;;;5079791;28;20561;-79
2023/10/25 09:54:47;;;;;;;3.17;1.70;;;13.00;99.90;;;;;;5080567;28;20511;-78
2023/10/25 09:57:16;;;;;;;3.13;1.30;;;13.00;99.90;;;;;;5089003;28;20520;-76
2023/10/25 09:59:44;;;;;;;6.50;1.60;;;13.10;99.90;;;;;;5077111;28;20461;-78
2023/10/25 10:02:17;;;;;;;6.03;1.77;;;13.10;99.90;;;;;;5094964;28;20608;-78
2023/10/25 10:04:52;;;;;;;4.90;1.30;;;13.10;99.90;;;;;;5078012;28;20463;-78
2023/10/25 10:07:32;;;;;;;2.53;1.30;;;13.10;99.90;;;;;;5089911;28;20833;-78
2023/10/25 10:10:07;;;;;;;3.27;1.40;;;13.10;99.90;;;;;;5077335;28;20448;-78
2023/10/25 10:12:37;;;;;;;3.00;1.30;;;13.10;99.90;;;;;;5072221;28;20488;-80
2023/10/25 10:15:04;;;;;;;2.80;1.20;;;13.00;99.90;;;;;;5087262;28;20455;-77
2023/10/25 10:17:35;;;;;;;2.37;1.23;;;13.00;99.90;;;;;;5092891;28;20456;-77
2023/10/25 10:20:05;;;;;;;3.23;1.30;;;13.00;99.90;;;;;;5075140;28;20454;-77
2023/10/25 10:22:32;;;;;;;3.00;1.30;;;12.90;99.90;;;;;;5083810;28;20483;-78
2023/10/25 10:25:00;;;;;;;2.23;1.17;;;12.90;99.90;;;;;;5081987;28;20541;-77
2023/10/25 10:27:52;;;;;;;5.50;1.53;;;12.90;99.90;;;;;;5074205;28;20441;-79
2023/10/25 10:33:14;;;;;;;3.00;1.20;;;12.80;99.90;;;;;;5089447;28;20588;-77
2023/10/25 10:35:48;;;;;;;1.80;1.07;;;12.70;99.90;;;;;;5089209;28;20478;-77
2023/10/25 10:38:15;;;;;;;7.23;2.17;;;12.70;99.90;;;;;;5078359;28;20484;-77
2023/10/25 10:40:41;;;;;;;2.57;1.23;;;12.70;99.90;;;;;;5086140;28;20527;-77
2023/10/25 10:43:08;;;;;;;2.40;1.10;;;12.70;99.90;;;;;;5080372;28;20541;-78
2023/10/25 10:45:35;;;;;;;3.20;1.40;;;12.60;99.90;;;;;;5085558;28;20958;-77
2023/10/25 10:48:10;;;;;;;5.87;1.70;;;12.50;99.90;;;;;;5087648;28;20465;-77
2023/10/25 10:50:40;;;;;;;3.17;1.37;;;12.50;99.90;;;;;;5089432;28;20454;-77
2023/10/25 10:53:07;;;;;;;2.90;1.50;;;12.40;99.90;;;;;;5086064;28;20491;-78
2023/10/25 10:55:34;;;;;;;6.50;1.80;;;12.50;99.90;;;;;;5088523;28;20454;-76
2023/10/25 10:58:02;;;;;;;3.80;1.20;;;12.50;99.90;;;;;;5087306;28;20551;-80
2023/10/25 11:00:29;;;;;;;3.13;1.30;;;12.50;99.90;;;;;;5081643;28;20460;-76
2023/10/25 11:02:56;;;;;;;2.00;1.30;;;12.50;99.90;;;;;;5081261;28;20478;-78
2023/10/25 11:05:23;;;;;;;3.80;1.40;;;12.50;99.90;;;;;;5074004;28;20547;-78
2023/10/25 11:07:53;;;;;;;3.57;1.50;;;12.60;99.90;;;;;;5070802;28;20540;-78
2023/10/25 11:10:20;;;;;;;3.17;1.90;;;12.60;99.90;;;;;;5090521;28;20461;-77
2023/10/25 11:12:47;;;;;;;2.50;1.53;;;12.60;99.90;;;;;;5090482;28;20494;-78
2023/10/25 11:15:15;;;;;;;2.80;1.57;;;12.60;99.90;;;;;;5092000;28;20448;-79
2023/10/25 11:17:41;;;;;;;4.70;1.83;;;12.60;99.90;;;;;;5081851;28;20464;-77
2023/10/25 11:20:08;;;;;;;2.00;1.27;;;12.60;99.90;;;;;;5076425;28;20918;-79
2023/10/25 11:22:36;;;;;;;2.40;1.40;;;12.60;99.90;;;;;;5090896;28;20507;-78
2023/10/25 11:25:10;;;;;;;2.83;1.50;;;12.60;99.90;;;;;;5091420;28;20920;-78
2023/10/25 11:27:38;;;;;;;1.90;1.37;;;12.50;99.90;;;;;;5089364;28;20481;-78
2023/10/25 11:30:06;;;;;;;4.63;1.80;;;12.50;99.90;;;;;;5083084;28;20449;-78
2023/10/25 11:32:33;;;;;;;4.37;1.40;;;12.50;99.90;;;;;;5083013;28;20505;-78
2023/10/25 11:35:00;;;;;;;2.97;1.50;;;12.50;99.90;;;;;;5090273;28;20960;-78
2023/10/25 11:37:27;;;;;;;3.40;1.67;;;12.40;99.90;;;;;;5089819;28;20451;-77
2023/10/25 11:39:59;;;;;;;4.03;1.73;;;12.40;99.90;;;;;;5090289;28;20459;-79
2023/10/25 11:42:29;;;;;;;3.07;1.67;;;12.30;99.90;;;;;;5087555;28;20525;-80
2023/10/25 11:44:56;;;;;;;3.43;1.60;;;12.30;99.90;;;;;;5075052;28;20452;-78
2023/10/25 11:47:23;;;;;;;5.00;1.83;;;12.30;99.90;;;;;;5059620;28;20454;-77
2023/10/25 11:49:53;;;;;;;3.70;2.00;;;12.30;99.90;;;;;;5067027;28;20530;-76
2023/10/25 11:52:23;;;;;;;4.13;2.63;;;12.30;99.90;;;;;;5074959;28;20500;-77
2023/10/25 11:54:55;;;;;;;3.27;1.70;;;12.30;99.90;;;;;;5074389;28;20485;-77
2023/10/25 11:57:22;;;;;;;2.50;1.50;;;12.30;99.90;;;;;;5074530;28;20455;-77
2023/10/25 11:59:51;;;;;;;2.87;1.90;;;12.20;99.90;;;;;;5074157;28;20445;-76
2023/10/25 12:02:20;;;;;;;5.93;1.50;;;12.20;99.90;;;;;;5074373;28;20505;-77
2023/10/25 12:04:47;;;;;;;9.37;2.57;;;12.20;99.90;;;;;;5074323;28;20455;-78
2023/10/25 12:07:14;;;;;;;5.17;2.40;;;12.10;99.90;;;;;;5068357;28;20489;-76
2023/10/25 12:09:42;;;;;;;4.30;2.40;;;12.10;99.90;;;;;;5062561;28;20458;-80
2023/10/25 12:12:10;;;;;;;3.00;1.93;;;12.10;99.90;;;;;;5073596;28;20493;-77
2023/10/25 12:14:37;;;;;;;3.93;1.70;;;12.10;99.90;;;;;;5073410;28;20451;-77
2023/10/25 12:17:06;;;;;;;4.80;2.10;;;12.00;99.90;;;;;;5073814;28;20464;-77
2023/10/25 12:19:35;;;;;;;8.50;2.60;;;12.00;99.90;;;;;;5073027;28;20551;-78
2023/10/25 12:22:02;;;;;;;3.57;1.90;;;12.00;99.90;;;;;;5068607;28;20474;-76
2023/10/25 12:24:29;;;;;;;3.60;2.30;;;12.00;99.90;;;;;;5071692;28;20547;-76
2023/10/25 12:26:56;;;;;;;5.40;2.63;;;12.00;99.90;;;;;;5074043;28;20458;-76
2023/10/25 12:29:24;;;;;;;3.57;1.73;;;12.00;99.90;;;;;;5059879;28;20544;-77
2023/10/25 12:31:51;;;;;;;4.10;2.27;;;12.00;99.90;;;;;;5070394;28;21008;-76
2023/10/25 12:34:19;;;;;;;3.57;2.80;;;12.00;99.90;;;;;;5048700;28;20474;-77
2023/10/25 12:36:46;;;;;;;4.30;2.50;;;12.00;99.90;;;;;;5054282;28;20466;-76
2023/10/25 12:39:14;;;;;;;3.97;2.20;;;12.00;99.90;;;;;;5050950;28;20839;-77
2023/10/25 12:41:40;;;;;;;5.47;2.60;;;11.90;99.90;;;;;;5055097;28;20951;-79
2023/10/25 12:44:08;;;;;;;3.30;2.07;;;11.90;99.90;;;;;;5058027;28;20479;-77
2023/10/25 12:46:35;;;;;;;2.97;1.90;;;12.00;99.90;;;;;;5066051;28;20455;-77
2023/10/25 12:49:03;;;;;;;3.90;2.30;;;11.90;99.90;;;;;;5049815;28;20513;-77
2023/10/25 12:51:31;;;;;;;2.80;2.13;;;11.90;99.90;;;;;;5051540;28;20546;-77
2023/10/25 12:53:58;;;;;;;4.10;2.70;;;11.90;99.90;;;;;;5050264;28;20473;-80